sensor_id;sensor_type;location;lat;lon;timestamp;pressure;altitude;pressure_sealevel;temperature
54306;BMP280;64314;45.188;5.712;2022-11-21T00:00:36;99463.28;;;19.56
54306;BMP280;64314;45.188;5.712;2022-11-21T00:03:02;99453.19;;;19.51
54306;BMP280;64314;45.188;5.712;2022-11-21T00:05:28;99454.97;;;19.56
54306;BMP280;64314;45.188;5.712;2022-11-21T00:07:54;99454.06;;;19.53
54306;BMP280;64314;45.188;5.712;2022-11-21T00:10:21;99445.63;;;19.52
54306;BMP280;64314;45.188;5.712;2022-11-21T00:12:46;99436.16;;;19.55
54306;BMP280;64314;45.188;5.712;2022-11-21T00:15:12;99442.59;;;19.57
54306;BMP280;64314;45.188;5.712;2022-11-21T00:17:38;99439.81;;;19.57
54306;BMP280;64314;45.188;5.712;2022-11-21T00:20:03;99420.75;;;19.52
54306;BMP280;64314;45.188;5.712;2022-11-21T00:22:31;99424.25;;;19.52
54306;BMP280;64314;45.188;5.712;2022-11-21T00:24:57;99422.22;;;19.53
54306;BMP280;64314;45.188;5.712;2022-11-21T00:27:22;99427.44;;;19.58
54306;BMP280;64314;45.188;5.712;2022-11-21T00:29:48;99421.78;;;19.56
54306;BMP280;64314;45.188;5.712;2022-11-21T00:32:13;99416.25;;;19.56
54306;BMP280;64314;45.188;5.712;2022-11-21T00:34:39;99413.19;;;19.52
54306;BMP280;64314;45.188;5.712;2022-11-21T00:37:04;99413.31;;;19.54
54306;BMP280;64314;45.188;5.712;2022-11-21T00:39:29;99414.78;;;19.55
54306;BMP280;64314;45.188;5.712;2022-11-21T00:41:55;99409.81;;;19.53
54306;BMP280;64314;45.188;5.712;2022-11-21T00:44:22;99406.91;;;19.52
54306;BMP280;64314;45.188;5.712;2022-11-21T00:46:47;99400.09;;;19.53
54306;BMP280;64314;45.188;5.712;2022-11-21T00:49:13;99399.34;;;19.52
54306;BMP280;64314;45.188;5.712;2022-11-21T00:51:38;99395.25;;;19.53
54306;BMP280;64314;45.188;5.712;2022-11-21T00:54:04;99395.25;;;19.53
54306;BMP280;64314;45.188;5.712;2022-11-21T00:56:30;99386.25;;;19.53
54306;BMP280;64314;45.188;5.712;2022-11-21T00:58:55;99387.53;;;19.52
54306;BMP280;64314;45.188;5.712;2022-11-21T01:01:20;99386.81;;;19.51
54306;BMP280;64314;45.188;5.712;2022-11-21T01:03:46;99391.16;;;19.54
54306;BMP280;64314;45.188;5.712;2022-11-21T01:06:13;99390.44;;;19.53
54306;BMP280;64314;45.188;5.712;2022-11-21T01:08:41;99390.63;;;19.56
54306;BMP280;64314;45.188;5.712;2022-11-21T01:11:18;99377.66;;;19.48
54306;BMP280;64314;45.188;5.712;2022-11-21T01:13:44;99386.81;;;19.51
54306;BMP280;64314;45.188;5.712;2022-11-21T01:16:16;99388.28;;;19.52
54306;BMP280;64314;45.188;5.712;2022-11-21T01:18:43;99388.28;;;19.52
54306;BMP280;64314;45.188;5.712;2022-11-21T01:21:18;99387.53;;;19.52
54306;BMP280;64314;45.188;5.712;2022-11-21T01:23:44;99388.41;;;19.54
54306;BMP280;64314;45.188;5.712;2022-11-21T01:26:12;99380.53;;;19.50
54306;BMP280;64314;45.188;5.712;2022-11-21T01:28:37;99386.66;;;19.49
54306;BMP280;64314;45.188;5.712;2022-11-21T01:31:13;99376.59;;;19.44
54306;BMP280;64314;45.188;5.712;2022-11-21T01:33:39;99374.00;;;19.46
54306;BMP280;64314;45.188;5.712;2022-11-21T01:36:17;99375.00;;;19.50
54306;BMP280;64314;45.188;5.712;2022-11-21T01:38:45;99365.53;;;19.44
54306;BMP280;64314;45.188;5.712;2022-11-21T01:41:12;99357.09;;;19.42
54306;BMP280;64314;45.188;5.712;2022-11-21T01:43:38;99366.13;;;19.42
54306;BMP280;64314;45.188;5.712;2022-11-21T01:46:11;99373.69;;;19.42
54306;BMP280;64314;45.188;5.712;2022-11-21T01:54:26;99345.88;;;19.40
54306;BMP280;64314;45.188;5.712;2022-11-21T01:59:36;99356.34;;;19.41
54306;BMP280;64314;45.188;5.712;2022-11-21T02:02:06;99348.66;;;19.40
54306;BMP280;64314;45.188;5.712;2022-11-21T02:04:34;99354.88;;;19.40
54306;BMP280;64314;45.188;5.712;2022-11-21T02:07:03;99346.47;;;19.38
54306;BMP280;64314;45.188;5.712;2022-11-21T02:09:32;99343.13;;;19.40
54306;BMP280;64314;45.188;5.712;2022-11-21T02:12:04;99337.44;;;19.38
54306;BMP280;64314;45.188;5.712;2022-11-21T02:14:30;99329.88;;;19.38
54306;BMP280;64314;45.188;5.712;2022-11-21T02:17:00;99337.28;;;19.36
54306;BMP280;64314;45.188;5.712;2022-11-21T02:19:40;99319.56;;;19.39
54306;BMP280;64314;45.188;5.712;2022-11-21T02:22:16;99315.31;;;19.38
54306;BMP280;64314;45.188;5.712;2022-11-21T02:24:45;99310.94;;;19.35
54306;BMP280;64314;45.188;5.712;2022-11-21T02:27:13;99309.63;;;19.36
54306;BMP280;64314;45.188;5.712;2022-11-21T02:29:40;99292.88;;;19.34
54306;BMP280;64314;45.188;5.712;2022-11-21T02:32:06;99301.19;;;19.34
54306;BMP280;64314;45.188;5.712;2022-11-21T02:34:32;99300.44;;;19.33
54306;BMP280;64314;45.188;5.712;2022-11-21T02:36:58;99312.09;;;19.32
54306;BMP280;64314;45.188;5.712;2022-11-21T02:39:33;99299.72;;;19.33
54306;BMP280;64314;45.188;5.712;2022-11-21T02:42:17;99294.06;;;19.31
54306;BMP280;64314;45.188;5.712;2022-11-21T02:47:25;99293.59;;;19.25
54306;BMP280;64314;45.188;5.712;2022-11-21T02:50:02;99296.09;;;19.30
54306;BMP280;64314;45.188;5.712;2022-11-21T02:52:30;99285.47;;;19.27
54306;BMP280;64314;45.188;5.712;2022-11-21T02:54:55;99282.25;;;19.30
54306;BMP280;64314;45.188;5.712;2022-11-21T02:57:21;99280.97;;;19.31
54306;BMP280;64314;45.188;5.712;2022-11-21T02:59:46;99285.75;;;19.31
54306;BMP280;64314;45.188;5.712;2022-11-21T03:02:12;99286.91;;;19.28
54306;BMP280;64314;45.188;5.712;2022-11-21T03:04:38;99277.31;;;19.29
54306;BMP280;64314;45.188;5.712;2022-11-21T03:07:03;99271.63;;;19.27
54306;BMP280;64314;45.188;5.712;2022-11-21T03:09:28;99258.53;;;19.27
54306;BMP280;64314;45.188;5.712;2022-11-21T03:11:54;99261.28;;;19.27
54306;BMP280;64314;45.188;5.712;2022-11-21T03:14:19;99256.50;;;19.28
54306;BMP280;64314;45.188;5.712;2022-11-21T03:16:45;99248.19;;;19.28
54306;BMP280;64314;45.188;5.712;2022-11-21T03:19:10;99244.56;;;19.25
54306;BMP280;64314;45.188;5.712;2022-11-21T03:21:36;99234.25;;;19.26
54306;BMP280;64314;45.188;5.712;2022-11-21T03:24:01;99232.19;;;19.26
54306;BMP280;64314;45.188;5.712;2022-11-21T03:26:27;99223.19;;;19.26
54306;BMP280;64314;45.188;5.712;2022-11-21T03:28:52;99217.78;;;19.28
54306;BMP280;64314;45.188;5.712;2022-11-21T03:31:18;99211.97;;;19.24
54306;BMP280;64314;45.188;5.712;2022-11-21T03:33:45;99202.94;;;19.23
54306;BMP280;64314;45.188;5.712;2022-11-21T03:36:11;99207.72;;;19.23
54306;BMP280;64314;45.188;5.712;2022-11-21T03:38:36;99204.97;;;19.23
54306;BMP280;64314;45.188;5.712;2022-11-21T03:41:03;99201.09;;;19.26
54306;BMP280;64314;45.188;5.712;2022-11-21T03:43:30;99206.31;;;19.22
54306;BMP280;64314;45.188;5.712;2022-11-21T03:45:55;99200.78;;;19.22
54306;BMP280;64314;45.188;5.712;2022-11-21T03:48:20;99203.66;;;19.24
54306;BMP280;64314;45.188;5.712;2022-11-21T03:50:46;99195.38;;;19.24
54306;BMP280;64314;45.188;5.712;2022-11-21T03:53:11;99198.41;;;19.18
54306;BMP280;64314;45.188;5.712;2022-11-21T03:55:37;99193.91;;;19.23
54306;BMP280;64314;45.188;5.712;2022-11-21T03:58:02;99186.34;;;19.23
54306;BMP280;64314;45.188;5.712;2022-11-21T04:00:28;99178.66;;;19.22
54306;BMP280;64314;45.188;5.712;2022-11-21T04:02:53;99172.41;;;19.21
54306;BMP280;64314;45.188;5.712;2022-11-21T04:05:19;99180.25;;;19.25
54306;BMP280;64314;45.188;5.712;2022-11-21T04:07:44;99171.66;;;19.21
54306;BMP280;64314;45.188;5.712;2022-11-21T04:10:10;99173.53;;;19.18
54306;BMP280;64314;45.188;5.712;2022-11-21T04:12:36;99175.59;;;19.18
54306;BMP280;64314;45.188;5.712;2022-11-21T04:15:01;99179.41;;;19.22
54306;BMP280;64314;45.188;5.712;2022-11-21T04:17:27;99174.44;;;19.21
54306;BMP280;64314;45.188;5.712;2022-11-21T04:19:52;99172.69;;;19.25
54306;BMP280;64314;45.188;5.712;2022-11-21T04:22:18;99163.50;;;19.23
54306;BMP280;64314;45.188;5.712;2022-11-21T04:24:43;99165.56;;;19.22
54306;BMP280;64314;45.188;5.712;2022-11-21T04:27:08;99164.97;;;19.24
54306;BMP280;64314;45.188;5.712;2022-11-21T04:29:34;99161.19;;;19.19
54306;BMP280;64314;45.188;5.712;2022-11-21T04:31:59;99159.88;;;19.20
54306;BMP280;64314;45.188;5.712;2022-11-21T04:34:25;99155.06;;;19.21
54306;BMP280;64314;45.188;5.712;2022-11-21T04:36:50;99159.13;;;19.20
54306;BMP280;64314;45.188;5.712;2022-11-21T04:39:16;99155.66;;;19.19
54306;BMP280;64314;45.188;5.712;2022-11-21T04:41:41;99146.06;;;19.20
54306;BMP280;64314;45.188;5.712;2022-11-21T04:44:06;99153.78;;;19.22
54306;BMP280;64314;45.188;5.712;2022-11-21T04:46:32;99145.50;;;19.22
54306;BMP280;64314;45.188;5.712;2022-11-21T04:48:57;99145.50;;;19.22
54306;BMP280;64314;45.188;5.712;2022-11-21T04:51:23;99141.38;;;19.23
54306;BMP280;64314;45.188;5.712;2022-11-21T04:53:48;99134.44;;;19.22
54306;BMP280;64314;45.188;5.712;2022-11-21T04:56:14;99133.09;;;19.23
54306;BMP280;64314;45.188;5.712;2022-11-21T04:58:41;99136.75;;;19.25
54306;BMP280;64314;45.188;5.712;2022-11-21T05:01:08;99133.41;;;19.27
54306;BMP280;64314;45.188;5.712;2022-11-21T05:03:34;99129.63;;;19.22
54306;BMP280;64314;45.188;5.712;2022-11-21T05:05:59;99124.97;;;19.25
54306;BMP280;64314;45.188;5.712;2022-11-21T05:08:25;99117.41;;;19.25
54306;BMP280;64314;45.188;5.712;2022-11-21T05:10:50;99125.53;;;19.23
54306;BMP280;64314;45.188;5.712;2022-11-21T05:13:34;99120.72;;;19.24
54306;BMP280;64314;45.188;5.712;2022-11-21T05:16:00;99124.97;;;19.25
54306;BMP280;64314;45.188;5.712;2022-11-21T05:18:25;99127.88;;;19.27
54306;BMP280;64314;45.188;5.712;2022-11-21T05:20:51;99131.06;;;19.23
54306;BMP280;64314;45.188;5.712;2022-11-21T05:23:16;99127.56;;;19.23
54306;BMP280;64314;45.188;5.712;2022-11-21T05:25:41;99119.25;;;19.23
54306;BMP280;64314;45.188;5.712;2022-11-21T05:28:07;99130.31;;;19.23
54306;BMP280;64314;45.188;5.712;2022-11-21T05:30:33;99124.13;;;19.22
54306;BMP280;64314;45.188;5.712;2022-11-21T05:32:58;99113.91;;;19.25
54306;BMP280;64314;45.188;5.712;2022-11-21T05:35:24;99120.00;;;19.23
54306;BMP280;64314;45.188;5.712;2022-11-21T05:37:55;99116.66;;;19.25
54306;BMP280;64314;45.188;5.712;2022-11-21T05:40:22;99105.63;;;19.25
54306;BMP280;64314;45.188;5.712;2022-11-21T05:42:48;99099.91;;;19.23
54306;BMP280;64314;45.188;5.712;2022-11-21T05:45:32;99103.41;;;19.23
54306;BMP280;64314;45.188;5.712;2022-11-21T05:47:57;99097.88;;;19.23
54306;BMP280;64314;45.188;5.712;2022-11-21T05:50:23;99104.88;;;19.24
54306;BMP280;64314;45.188;5.712;2022-11-21T05:52:48;99102.13;;;19.24
54306;BMP280;64314;45.188;5.712;2022-11-21T05:55:14;99097.47;;;19.27
54306;BMP280;64314;45.188;5.712;2022-11-21T05:57:39;99089.16;;;19.27
54306;BMP280;64314;45.188;5.712;2022-11-21T06:00:05;99083.63;;;19.27
54306;BMP280;64314;45.188;5.712;2022-11-21T06:02:31;99069.09;;;19.26
54306;BMP280;64314;45.188;5.712;2022-11-21T06:05:15;99064.88;;;19.25
54306;BMP280;64314;45.188;5.712;2022-11-21T06:07:40;99054.38;;;19.24
54306;BMP280;64314;45.188;5.712;2022-11-21T06:10:06;99051.06;;;19.25
54306;BMP280;64314;45.188;5.712;2022-11-21T06:12:31;99039.81;;;19.23
54306;BMP280;64314;45.188;5.712;2022-11-21T06:14:57;99024.16;;;19.26
54306;BMP280;64314;45.188;5.712;2022-11-21T06:17:22;99010.16;;;19.24
54306;BMP280;64314;45.188;5.712;2022-11-21T06:19:48;99004.78;;;19.26
54306;BMP280;64314;45.188;5.712;2022-11-21T06:22:13;98996.97;;;19.22
54306;BMP280;64314;45.188;5.712;2022-11-21T06:24:38;99005.66;;;19.28
54306;BMP280;64314;45.188;5.712;2022-11-21T06:27:04;98994.31;;;19.24
54306;BMP280;64314;45.188;5.712;2022-11-21T06:29:29;98995.78;;;19.25
54306;BMP280;64314;45.188;5.712;2022-11-21T06:31:55;98988.91;;;19.26
54306;BMP280;64314;45.188;5.712;2022-11-21T06:34:20;98981.34;;;19.27
54306;BMP280;64314;45.188;5.712;2022-11-21T06:36:46;98973.66;;;19.25
54306;BMP280;64314;45.188;5.712;2022-11-21T06:39:11;98967.97;;;19.23
54306;BMP280;64314;45.188;5.712;2022-11-21T06:41:37;98965.19;;;19.23
54306;BMP280;64314;45.188;5.712;2022-11-21T06:44:02;98970.31;;;19.27
54306;BMP280;64314;45.188;5.712;2022-11-21T06:46:28;98974.50;;;19.28
54306;BMP280;64314;45.188;5.712;2022-11-21T06:48:53;98978.72;;;19.29
54306;BMP280;64314;45.188;5.712;2022-11-21T06:51:21;98965.94;;;19.24
54306;BMP280;64314;45.188;5.712;2022-11-21T06:53:52;98951.53;;;19.25
54306;BMP280;64314;45.188;5.712;2022-11-21T06:56:21;98957.06;;;19.25
54306;BMP280;64314;45.188;5.712;2022-11-21T06:58:47;98954.13;;;19.23
54306;BMP280;64314;45.188;5.712;2022-11-21T07:01:12;98950.22;;;19.26
54306;BMP280;64314;45.188;5.712;2022-11-21T07:03:38;98951.53;;;19.25
54306;BMP280;64314;45.188;5.712;2022-11-21T07:06:04;98941.03;;;19.24
54306;BMP280;64314;45.188;5.712;2022-11-21T07:08:31;98934.94;;;19.25
54306;BMP280;64314;45.188;5.712;2022-11-21T07:11:02;98920.22;;;19.23
54306;BMP280;64314;45.188;5.712;2022-11-21T07:13:28;98916.34;;;19.26
54306;BMP280;64314;45.188;5.712;2022-11-21T07:16:02;98906.56;;;19.25
54306;BMP280;64314;45.188;5.712;2022-11-21T07:18:28;98910.06;;;19.25
54306;BMP280;64314;45.188;5.712;2022-11-21T07:21:00;98903.41;;;19.19
54306;BMP280;64314;45.188;5.712;2022-11-21T07:23:26;98901.50;;;19.21
54306;BMP280;64314;45.188;5.712;2022-11-21T07:25:52;98897.88;;;19.19
54306;BMP280;64314;45.188;5.712;2022-11-21T07:28:18;98914.03;;;19.22
54306;BMP280;64314;45.188;5.712;2022-11-21T07:30:43;98910.53;;;19.22
54306;BMP280;64314;45.188;5.712;2022-11-21T07:33:08;98914.69;;;19.23
54306;BMP280;64314;45.188;5.712;2022-11-21T07:35:35;98905.00;;;19.22
54306;BMP280;64314;45.188;5.712;2022-11-21T07:38:02;98909.19;;;19.23
54306;BMP280;64314;45.188;5.712;2022-11-21T07:40:28;98903.53;;;19.21
54306;BMP280;64314;45.188;5.712;2022-11-21T07:42:59;98893.78;;;19.20
54306;BMP280;64314;45.188;5.712;2022-11-21T07:45:25;98903.66;;;19.23
54306;BMP280;64314;45.188;5.712;2022-11-21T07:48:05;98906.41;;;19.23
54306;BMP280;64314;45.188;5.712;2022-11-21T07:50:34;98884.28;;;19.23
54306;BMP280;64314;45.188;5.712;2022-11-21T07:53:02;98880.22;;;19.24
54306;BMP280;64314;45.188;5.712;2022-11-21T07:55:28;98873.53;;;19.27
54306;BMP280;64314;45.188;5.712;2022-11-21T07:58:02;98868.19;;;19.19
54306;BMP280;64314;45.188;5.712;2022-11-21T08:00:29;98855.06;;;19.20
54306;BMP280;64314;45.188;5.712;2022-11-21T08:02:55;98849.00;;;19.21
54306;BMP280;64314;45.188;5.712;2022-11-21T08:05:21;98858.56;;;19.20
54306;BMP280;64314;45.188;5.712;2022-11-21T08:07:46;98861.50;;;19.22
54306;BMP280;64314;45.188;5.712;2022-11-21T08:10:12;98848.38;;;19.23
54306;BMP280;64314;45.188;5.712;2022-11-21T08:12:38;98839.22;;;19.20
54306;BMP280;64314;45.188;5.712;2022-11-21T08:15:04;98834.44;;;19.21
54306;BMP280;64314;45.188;5.712;2022-11-21T08:17:31;98835.72;;;19.20
54306;BMP280;64314;45.188;5.712;2022-11-21T08:19:56;98825.41;;;19.20
54306;BMP280;64314;45.188;5.712;2022-11-21T08:22:24;98815.19;;;19.23
54306;BMP280;64314;45.188;5.712;2022-11-21T08:24:50;98806.78;;;19.21
54306;BMP280;64314;45.188;5.712;2022-11-21T08:27:15;98800.13;;;19.14
54306;BMP280;64314;45.188;5.712;2022-11-21T08:29:45;98801.13;;;19.19
54306;BMP280;64314;45.188;5.712;2022-11-21T08:32:10;98792.84;;;19.19
54306;BMP280;64314;45.188;5.712;2022-11-21T08:34:36;98783.81;;;19.18
54306;BMP280;64314;45.188;5.712;2022-11-21T08:37:01;98779.03;;;19.19
54306;BMP280;64314;45.188;5.712;2022-11-21T08:39:27;98772.75;;;19.18
54306;BMP280;64314;45.188;5.712;2022-11-21T08:41:55;98765.06;;;19.17
54306;BMP280;64314;45.188;5.712;2022-11-21T08:44:35;98748.63;;;19.19
54306;BMP280;64314;45.188;5.712;2022-11-21T08:47:01;98718.81;;;19.17
54306;BMP280;64314;45.188;5.712;2022-11-21T08:49:31;98722.41;;;19.20
54306;BMP280;64314;45.188;5.712;2022-11-21T08:52:00;98711.34;;;19.20
54306;BMP280;64314;45.188;5.712;2022-11-21T08:54:26;98689.25;;;19.20
54306;BMP280;64314;45.188;5.712;2022-11-21T08:56:52;98679.53;;;19.19
54306;BMP280;64314;45.188;5.712;2022-11-21T08:59:20;98671.69;;;19.15
54306;BMP280;64314;45.188;5.712;2022-11-21T09:01:45;98667.13;;;19.20
54306;BMP280;64314;45.188;5.712;2022-11-21T09:04:11;98653.91;;;19.18
54306;BMP280;64314;45.188;5.712;2022-11-21T09:06:37;98663.66;;;19.19
54306;BMP280;64314;45.188;5.712;2022-11-21T09:09:06;98664.53;;;19.22
54306;BMP280;64314;45.188;5.712;2022-11-21T09:11:32;98654.03;;;19.20
54306;BMP280;64314;45.188;5.712;2022-11-21T09:13:57;98647.09;;;19.19
54306;BMP280;64314;45.188;5.712;2022-11-21T09:16:42;98642.25;;;19.20
54306;BMP280;64314;45.188;5.712;2022-11-21T09:19:26;98641.69;;;19.21
54306;BMP280;64314;45.188;5.712;2022-11-21T09:21:52;98632.66;;;19.21
54306;BMP280;64314;45.188;5.712;2022-11-21T09:24:18;98617.28;;;19.18
54306;BMP280;64314;45.188;5.712;2022-11-21T09:26:44;98617.28;;;19.18
54306;BMP280;64314;45.188;5.712;2022-11-21T09:29:10;98604.91;;;19.19
54306;BMP280;64314;45.188;5.712;2022-11-21T09:31:38;98607.06;;;19.20
54306;BMP280;64314;45.188;5.712;2022-11-21T09:34:03;98612.00;;;19.22
54306;BMP280;64314;45.188;5.712;2022-11-21T09:36:29;98602.25;;;19.21
54306;BMP280;64314;45.188;5.712;2022-11-21T09:38:54;98600.81;;;19.20
54306;BMP280;64314;45.188;5.712;2022-11-21T09:47:31;98571.28;;;19.22
54306;BMP280;64314;45.188;5.712;2022-11-21T09:50:03;98569.47;;;19.27
54306;BMP280;64314;45.188;5.712;2022-11-21T09:53:02;98554.81;;;19.24
54306;BMP280;64314;45.188;5.712;2022-11-21T09:55:45;98554.06;;;19.24
54306;BMP280;64314;45.188;5.712;2022-11-21T10:00:50;98537.13;;;19.18
54306;BMP280;64314;45.188;5.712;2022-11-21T10:03:16;98542.66;;;19.18
54306;BMP280;64314;45.188;5.712;2022-11-21T10:05:49;98533.28;;;19.23
54306;BMP280;64314;45.188;5.712;2022-11-21T10:08:33;98527.06;;;19.22
54306;BMP280;64314;45.188;5.712;2022-11-21T10:14:49;98511.16;;;19.23
54306;BMP280;64314;45.188;5.712;2022-11-21T10:17:41;98498.69;;;19.22
54306;BMP280;64314;45.188;5.712;2022-11-21T10:25:36;98485.47;;;19.20
54306;BMP280;64314;45.188;5.712;2022-11-21T10:28:23;98482.13;;;19.22
54306;BMP280;64314;45.188;5.712;2022-11-21T10:30:54;98470.06;;;19.17
54306;BMP280;64314;45.188;5.712;2022-11-21T10:33:31;98464.81;;;19.21
54306;BMP280;64314;45.188;5.712;2022-11-21T10:36:01;98468.13;;;19.20
54306;BMP280;64314;45.188;5.712;2022-11-21T10:38:36;98439.94;;;19.21
54306;BMP280;64314;45.188;5.712;2022-11-21T10:44:15;98428.75;;;19.19
54306;BMP280;64314;45.188;5.712;2022-11-21T10:47:00;98416.00;;;19.14
54306;BMP280;64314;45.188;5.712;2022-11-21T10:49:29;98403.50;;;19.13
54306;BMP280;64314;45.188;5.712;2022-11-21T10:52:13;98393.53;;;19.20
54306;BMP280;64314;45.188;5.712;2022-11-21T10:57:52;98378.66;;;19.25
54306;BMP280;64314;45.188;5.712;2022-11-21T11:00:24;98361.81;;;19.21
54306;BMP280;64314;45.188;5.712;2022-11-21T11:03:02;98361.34;;;19.24
54306;BMP280;64314;45.188;5.712;2022-11-21T11:05:41;98349.53;;;19.24
54306;BMP280;64314;45.188;5.712;2022-11-21T11:08:20;98343.78;;;19.20
54306;BMP280;64314;45.188;5.712;2022-11-21T11:11:06;98331.78;;;19.27
54306;BMP280;64314;45.188;5.712;2022-11-21T11:13:32;98323.94;;;19.23
54306;BMP280;64314;45.188;5.712;2022-11-21T11:19:00;98304.28;;;19.17
54306;BMP280;64314;45.188;5.712;2022-11-21T11:22:01;98301.03;;;19.21
54306;BMP280;64314;45.188;5.712;2022-11-21T11:24:26;98286.47;;;19.20
54306;BMP280;64314;45.188;5.712;2022-11-21T11:26:59;98285.03;;;19.19
54306;BMP280;64314;45.188;5.712;2022-11-21T11:29:27;98265.09;;;19.21
54306;BMP280;64314;45.188;5.712;2022-11-21T11:34:26;98249.97;;;19.22
54306;BMP280;64314;45.188;5.712;2022-11-21T11:36:55;98228.59;;;19.22
54306;BMP280;64314;45.188;5.712;2022-11-21T11:39:59;98229.97;;;19.23
54306;BMP280;64314;45.188;5.712;2022-11-21T11:49:46;98183.97;;;19.28
54306;BMP280;64314;45.188;5.712;2022-11-21T11:52:41;98154.19;;;19.26
54306;BMP280;64314;45.188;5.712;2022-11-21T11:55:18;98170.06;;;19.26
54306;BMP280;64314;45.188;5.712;2022-11-21T12:01:42;98143.66;;;19.36
54306;BMP280;64314;45.188;5.712;2022-11-21T12:04:16;98149.34;;;19.38
54306;BMP280;64314;45.188;5.712;2022-11-21T12:07:05;98149.34;;;19.38
54306;BMP280;64314;45.188;5.712;2022-11-21T12:10:00;98095.47;;;19.39
54306;BMP280;64314;45.188;5.712;2022-11-21T12:12:40;98093.91;;;19.36
54306;BMP280;64314;45.188;5.712;2022-11-21T12:15:30;98080.00;;;19.34
54306;BMP280;64314;45.188;5.712;2022-11-21T12:21:08;98085.25;;;19.42
54306;BMP280;64314;45.188;5.712;2022-11-21T12:23:49;98084.03;;;19.45
54306;BMP280;64314;45.188;5.712;2022-11-21T12:26:58;98071.84;;;19.50
54306;BMP280;64314;45.188;5.712;2022-11-21T12:32:55;98064.91;;;19.49
54306;BMP280;64314;45.188;5.712;2022-11-21T12:36:13;98072.28;;;19.44
54306;BMP280;64314;45.188;5.712;2022-11-21T12:43:41;98051.56;;;19.45
54306;BMP280;64314;45.188;5.712;2022-11-21T12:46:26;98055.91;;;19.48
54306;BMP280;64314;45.188;5.712;2022-11-21T12:52:32;98058.75;;;19.50
54306;BMP280;64314;45.188;5.712;2022-11-21T12:55:34;98041.25;;;19.46
54306;BMP280;64314;45.188;5.712;2022-11-21T12:58:20;98055.63;;;19.56
54306;BMP280;64314;45.188;5.712;2022-11-21T13:06:17;98035.59;;;19.44
54306;BMP280;64314;45.188;5.712;2022-11-21T13:08:47;98027.53;;;19.48
54306;BMP280;64314;45.188;5.712;2022-11-21T13:23:39;98020.56;;;19.47
54306;BMP280;64314;45.188;5.712;2022-11-21T13:29:14;98025.50;;;19.48
54306;BMP280;64314;45.188;5.712;2022-11-21T13:31:45;98033.97;;;19.39
54306;BMP280;64314;45.188;5.712;2022-11-21T13:34:34;98044.00;;;19.46
54306;BMP280;64314;45.188;5.712;2022-11-21T13:37:09;98014.06;;;19.29
54306;BMP280;64314;45.188;5.712;2022-11-21T13:45:51;98053.81;;;19.35
54306;BMP280;64314;45.188;5.712;2022-11-21T13:56:52;98007.81;;;19.28
54306;BMP280;64314;45.188;5.712;2022-11-21T14:06:14;98010.28;;;19.36
54306;BMP280;64314;45.188;5.712;2022-11-21T14:11:35;98012.94;;;19.34
54306;BMP280;64314;45.188;5.712;2022-11-21T14:14:03;98014.19;;;19.31
54306;BMP280;64314;45.188;5.712;2022-11-21T14:16:43;98017.03;;;19.33
54306;BMP280;64314;45.188;5.712;2022-11-21T14:19:13;98043.97;;;19.32
54306;BMP280;64314;45.188;5.712;2022-11-21T14:21:44;98026.44;;;19.28
54306;BMP280;64314;45.188;5.712;2022-11-21T14:24:19;98032.06;;;19.30
54306;BMP280;64314;45.188;5.712;2022-11-21T14:26:47;98038.94;;;19.29
54306;BMP280;64314;45.188;5.712;2022-11-21T14:29:39;98038.94;;;19.29
54306;BMP280;64314;45.188;5.712;2022-11-21T14:32:27;98036.06;;;19.27
54306;BMP280;64314;45.188;5.712;2022-11-21T14:35:07;98028.97;;;19.24
54306;BMP280;64314;45.188;5.712;2022-11-21T14:37:33;98012.91;;;19.20
54306;BMP280;64314;45.188;5.712;2022-11-21T14:40:02;98017.69;;;19.20
54306;BMP280;64314;45.188;5.712;2022-11-21T14:42:35;98007.88;;;19.17
54306;BMP280;64314;45.188;5.712;2022-11-21T14:47:49;97997.44;;;19.15
54306;BMP280;64314;45.188;5.712;2022-11-21T14:50:30;98006.31;;;19.14
54306;BMP280;64314;45.188;5.712;2022-11-21T14:52:59;98005.63;;;19.13
54306;BMP280;64314;45.188;5.712;2022-11-21T14:55:28;98011.16;;;19.13
54306;BMP280;64314;45.188;5.712;2022-11-21T14:57:56;97993.84;;;19.13
54306;BMP280;64314;45.188;5.712;2022-11-21T15:00:28;97988.44;;;19.15
54306;BMP280;64314;45.188;5.712;2022-11-21T15:02:56;97978.69;;;19.14
54306;BMP280;64314;45.188;5.712;2022-11-21T15:05:31;97963.44;;;19.13
54306;BMP280;64314;45.188;5.712;2022-11-21T15:07:58;97966.09;;;19.11
54306;BMP280;64314;45.188;5.712;2022-11-21T15:10:32;97962.63;;;19.10
54306;BMP280;64314;45.188;5.712;2022-11-21T15:13:04;97961.88;;;19.10
54306;BMP280;64314;45.188;5.712;2022-11-21T15:15:38;97948.00;;;19.08
54306;BMP280;64314;45.188;5.712;2022-11-21T15:18:06;97956.38;;;19.10
54306;BMP280;64314;45.188;5.712;2022-11-21T15:20:36;97960.50;;;19.09
54306;BMP280;64314;45.188;5.712;2022-11-21T15:23:01;97949.44;;;19.09
54306;BMP280;64314;45.188;5.712;2022-11-21T15:25:29;97946.44;;;19.05
54306;BMP280;64314;45.188;5.712;2022-11-21T15:30:28;97938.25;;;19.07
54306;BMP280;64314;45.188;5.712;2022-11-21T15:35:46;97929.97;;;19.07
54306;BMP280;64314;45.188;5.712;2022-11-21T15:38:31;97931.31;;;19.06
54306;BMP280;64314;45.188;5.712;2022-11-21T15:41:04;97916.66;;;19.03
54306;BMP280;64314;45.188;5.712;2022-11-21T15:43:42;97897.13;;;18.99
54306;BMP280;64314;45.188;5.712;2022-11-21T15:48:57;97904.19;;;19.02
54306;BMP280;64314;45.188;5.712;2022-11-21T15:51:25;97875.31;;;18.92
54306;BMP280;64314;45.188;5.712;2022-11-21T15:53:54;97874.69;;;18.93
54306;BMP280;64314;45.188;5.712;2022-11-21T15:56:20;97889.53;;;19.00
54306;BMP280;64314;45.188;5.712;2022-11-21T15:58:47;97889.66;;;19.02
54306;BMP280;64314;45.188;5.712;2022-11-21T16:01:21;97878.38;;;18.98
54306;BMP280;64314;45.188;5.712;2022-11-21T16:03:49;97876.94;;;18.97
54306;BMP280;64314;45.188;5.712;2022-11-21T16:06:15;97872.06;;;18.95
54306;BMP280;64314;45.188;5.712;2022-11-21T16:08:41;97875.72;;;19.00
54306;BMP280;64314;45.188;5.712;2022-11-21T16:11:17;97865.66;;;18.93
54306;BMP280;64314;45.188;5.712;2022-11-21T16:13:47;97868.06;;;18.98
54306;BMP280;64314;45.188;5.712;2022-11-21T16:16:13;97851.06;;;18.90
54306;BMP280;64314;45.188;5.712;2022-11-21T16:18:38;97847.19;;;18.95
54306;BMP280;64314;45.188;5.712;2022-11-21T16:21:06;97848.59;;;18.96
54306;BMP280;64314;45.188;5.712;2022-11-21T16:23:31;97856.28;;;18.98
54306;BMP280;64314;45.188;5.712;2022-11-21T16:25:57;97852.94;;;18.99